createdAt,value
2019-06-04T00:00:37.538Z,99.90
2019-06-04T00:03:06.294Z,99.90
2019-06-04T00:05:34.846Z,99.90
2019-06-04T00:08:03.371Z,99.90
2019-06-04T00:10:31.922Z,99.90
2019-06-04T00:13:01.791Z,99.90
2019-06-04T00:15:30.523Z,99.90
2019-06-04T00:17:58.980Z,99.90
2019-06-04T00:20:27.464Z,99.90
2019-06-04T00:22:56.399Z,99.90
2019-06-04T00:25:25.006Z,99.90
2019-06-04T00:27:54.762Z,99.90
2019-06-04T00:30:33.965Z,99.90
2019-06-04T00:33:02.783Z,99.90
2019-06-04T00:35:31.741Z,99.90
2019-06-04T00:38:00.697Z,99.90
2019-06-04T00:40:31.749Z,99.90
2019-06-04T00:43:01.021Z,99.90
2019-06-04T00:45:29.734Z,99.90
2019-06-04T00:48:01.067Z,99.90
2019-06-04T00:50:29.659Z,99.90
2019-06-04T00:52:59.347Z,99.90
2019-06-04T00:55:28.203Z,99.90
2019-06-04T00:58:00.538Z,99.90
2019-06-04T01:00:32.099Z,99.90
2019-06-04T01:03:01.730Z,99.90
2019-06-04T01:05:30.557Z,99.90
2019-06-04T01:07:59.351Z,99.90
2019-06-04T01:10:28.143Z,99.90
2019-06-04T01:12:58.653Z,99.90
2019-06-04T01:15:26.867Z,99.90
2019-06-04T01:17:55.328Z,99.90
2019-06-04T01:20:41.374Z,99.90
2019-06-04T01:23:10.193Z,99.90
2019-06-04T01:25:38.666Z,99.90
2019-06-04T01:28:07.895Z,99.90
2019-06-04T01:30:36.594Z,99.90
2019-06-04T01:33:06.175Z,99.90
2019-06-04T01:35:35.019Z,99.90
2019-06-04T01:38:04.605Z,99.90
2019-06-04T01:40:33.499Z,99.90
2019-06-04T01:43:03.862Z,99.90
2019-06-04T01:45:32.173Z,99.90
2019-06-04T01:48:01.646Z,99.90
2019-06-04T01:50:30.313Z,99.90
2019-06-04T01:52:58.791Z,99.90
2019-06-04T01:55:27.526Z,99.90
2019-06-04T01:57:56.097Z,99.90
2019-06-04T02:00:30.568Z,99.90
2019-06-04T02:02:55.230Z,99.90
2019-06-04T02:05:23.859Z,99.90
2019-06-04T02:07:52.539Z,99.90
2019-06-04T02:10:21.326Z,99.90
2019-06-04T02:12:50.043Z,99.90
2019-06-04T02:15:20.142Z,99.90
2019-06-04T02:17:48.608Z,99.90
2019-06-04T02:20:18.618Z,99.90
2019-06-04T02:22:47.141Z,99.90
2019-06-04T02:25:15.944Z,99.90
2019-06-04T02:27:44.424Z,99.90
2019-06-04T02:30:17.735Z,99.90
2019-06-04T02:33:04.431Z,99.90
2019-06-04T02:35:15.589Z,99.90
2019-06-04T02:37:44.065Z,99.90
2019-06-04T02:40:14.280Z,99.90
2019-06-04T02:42:43.070Z,99.90
2019-06-04T02:45:12.510Z,99.90
2019-06-04T02:47:42.979Z,99.90
2019-06-04T02:50:14.288Z,99.90
2019-06-04T02:52:46.078Z,99.90
2019-06-04T02:55:16.074Z,99.90
2019-06-04T02:57:47.525Z,99.90
2019-06-04T03:00:16.614Z,99.90
2019-06-04T03:02:45.144Z,99.90
2019-06-04T03:05:14.883Z,99.90
2019-06-04T03:07:43.468Z,99.90
2019-06-04T03:10:19.359Z,99.90
2019-06-04T03:12:48.191Z,99.90
2019-06-04T03:15:17.898Z,99.90
2019-06-04T03:17:46.546Z,99.90
2019-06-04T03:20:16.332Z,99.90
2019-06-04T03:22:45.010Z,99.90
2019-06-04T03:25:14.948Z,99.90
2019-06-04T03:27:43.571Z,99.90
2019-06-04T03:30:14.184Z,99.90
2019-06-04T03:32:42.393Z,99.90
2019-06-04T03:35:12.216Z,99.90
2019-06-04T03:37:41.116Z,99.90
2019-06-04T03:40:09.980Z,99.90
2019-06-04T03:42:38.444Z,99.90
2019-06-04T03:45:07.469Z,99.90
2019-06-04T03:47:35.959Z,99.90
2019-06-04T03:50:05.778Z,99.90
2019-06-04T03:52:34.411Z,99.90
2019-06-04T03:55:02.905Z,99.90
2019-06-04T03:57:31.377Z,99.90
2019-06-04T04:00:00.155Z,99.90
2019-06-04T04:02:28.940Z,99.90
2019-06-04T04:04:57.495Z,99.90
2019-06-04T04:07:25.983Z,99.90
2019-06-04T04:09:54.437Z,99.90
2019-06-04T04:12:23.087Z,99.90
2019-06-04T04:14:51.571Z,99.90
2019-06-04T04:17:20.885Z,99.90
2019-06-04T04:19:49.536Z,99.90
2019-06-04T04:22:18.137Z,99.90
2019-06-04T04:24:46.637Z,99.90
2019-06-04T04:27:15.114Z,99.90
2019-06-04T04:29:43.838Z,99.90
2019-06-04T04:32:12.296Z,99.90
2019-06-04T04:34:40.764Z,99.90
2019-06-04T04:37:09.234Z,99.90
2019-06-04T04:39:37.731Z,99.90
2019-06-04T04:42:06.214Z,99.90
2019-06-04T04:44:34.673Z,99.90
2019-06-04T04:47:03.183Z,99.90
2019-06-04T04:49:34.154Z,99.90
2019-06-04T04:52:02.590Z,99.90
2019-06-04T04:54:31.060Z,99.90
2019-06-04T04:56:59.557Z,99.90
2019-06-04T04:59:28.267Z,99.90
2019-06-04T05:01:56.757Z,99.90
2019-06-04T05:04:44.899Z,99.90
2019-06-04T05:06:59.271Z,99.90
2019-06-04T05:09:28.551Z,99.90
2019-06-04T05:11:59.828Z,99.90
2019-06-04T05:14:31.182Z,99.90
2019-06-04T05:17:01.453Z,99.90
2019-06-04T05:19:33.632Z,99.90
2019-06-04T05:22:02.836Z,99.90
2019-06-04T05:24:31.929Z,99.90
2019-06-04T05:27:00.683Z,99.90
2019-06-04T05:29:29.881Z,99.90
2019-06-04T05:31:58.424Z,99.90
2019-06-04T05:34:26.903Z,99.90
2019-06-04T05:36:55.365Z,99.90
2019-06-04T05:39:24.213Z,99.90
2019-06-04T05:41:52.794Z,99.90
2019-06-04T05:44:22.343Z,99.90
2019-06-04T05:46:51.037Z,99.90
2019-06-04T05:49:19.602Z,99.90
2019-06-04T05:51:48.121Z,99.90
2019-06-04T05:54:16.583Z,99.90
2019-06-04T05:56:45.059Z,99.90
2019-06-04T05:59:13.528Z,99.90
2019-06-04T06:01:42.024Z,99.90
2019-06-04T06:04:10.549Z,99.90
2019-06-04T06:06:39.022Z,99.90
2019-06-04T06:09:08.468Z,99.90
2019-06-04T06:11:36.933Z,99.90
2019-06-04T06:14:05.978Z,99.90
2019-06-04T06:16:35.037Z,99.90
2019-06-04T06:19:03.845Z,99.90
2019-06-04T06:21:33.198Z,99.90
2019-06-04T06:24:01.769Z,99.90
2019-06-04T06:26:31.224Z,99.90
2019-06-04T06:29:03.726Z,99.90
2019-06-04T06:31:30.682Z,99.90
2019-06-04T06:33:59.259Z,99.90
2019-06-04T06:36:28.869Z,99.90
2019-06-04T06:38:57.459Z,99.90
2019-06-04T06:41:27.381Z,99.90
2019-06-04T06:43:56.259Z,99.90
2019-06-04T06:46:27.198Z,99.90
2019-06-04T06:48:54.994Z,99.90
2019-06-04T06:51:23.452Z,99.90
2019-06-04T06:53:51.958Z,99.90
2019-06-04T06:56:20.431Z,99.90
2019-06-04T06:58:48.906Z,99.90
2019-06-04T07:01:17.458Z,99.90
2019-06-04T07:03:46.385Z,99.90
2019-06-04T07:06:17.065Z,99.90
2019-06-04T07:08:47.503Z,99.90
2019-06-04T07:11:16.321Z,99.90
2019-06-04T07:13:48.240Z,99.80
2019-06-04T07:16:16.980Z,99.90
2019-06-04T07:18:45.813Z,99.90
2019-06-04T07:21:14.377Z,99.90
2019-06-04T07:23:42.858Z,99.90
2019-06-04T07:26:11.383Z,99.90
2019-06-04T07:28:39.945Z,99.90
2019-06-04T07:31:08.479Z,99.90
2019-06-04T07:33:38.055Z,99.90
2019-06-04T07:36:22.954Z,99.90
2019-06-04T07:38:37.477Z,99.90
2019-06-04T07:41:06.000Z,99.90
2019-06-04T07:43:35.437Z,99.90
2019-06-04T07:46:04.914Z,99.90
2019-06-04T07:48:37.229Z,99.90
2019-06-04T07:51:03.671Z,99.90
2019-06-04T07:53:33.392Z,99.90
2019-06-04T07:56:05.389Z,99.80
2019-06-04T07:58:32.380Z,99.70
2019-06-04T08:01:00.840Z,99.30
2019-06-04T08:03:29.400Z,99.20
2019-06-04T08:05:57.846Z,98.20
2019-06-04T08:08:26.399Z,98.90
2019-06-04T08:10:55.075Z,98.70
2019-06-04T08:13:23.649Z,98.50
2019-06-04T08:15:52.170Z,97.70
2019-06-04T08:18:20.724Z,98.00
2019-06-04T08:20:49.255Z,97.90
2019-06-04T08:23:17.727Z,97.80
2019-06-04T08:25:46.207Z,97.90
2019-06-04T08:28:14.936Z,98.00
2019-06-04T08:30:44.582Z,98.40
2019-06-04T08:33:13.416Z,98.10
2019-06-04T08:35:43.679Z,98.40
2019-06-04T08:38:12.290Z,98.60
2019-06-04T08:40:41.663Z,98.70
2019-06-04T08:43:10.266Z,98.90
2019-06-04T08:45:39.597Z,98.80
2019-06-04T08:48:08.574Z,98.20
2019-06-04T08:50:37.995Z,97.90
2019-06-04T08:53:10.683Z,98.20
2019-06-04T08:55:41.202Z,97.90
2019-06-04T08:58:10.992Z,97.40
2019-06-04T09:00:43.797Z,97.40
2019-06-04T09:03:12.543Z,97.20
2019-06-04T09:05:42.161Z,96.60
2019-06-04T09:08:11.441Z,97.20
2019-06-04T09:10:44.974Z,97.70
2019-06-04T09:13:14.002Z,96.50
2019-06-04T09:15:45.233Z,96.20
2019-06-04T09:18:13.507Z,96.50
2019-06-04T09:20:42.636Z,96.60
2019-06-04T09:23:11.664Z,97.30
2019-06-04T09:25:40.904Z,96.60
2019-06-04T09:28:09.650Z,96.10
2019-06-04T09:30:39.953Z,96.00
2019-06-04T09:33:08.475Z,95.80
2019-06-04T09:35:37.029Z,94.80
2019-06-04T09:38:10.161Z,94.70
2019-06-04T09:40:35.852Z,94.20
2019-06-04T09:43:04.652Z,94.30
2019-06-04T09:45:33.190Z,94.70
2019-06-04T09:48:01.979Z,94.80
2019-06-04T09:50:32.694Z,95.00
2019-06-04T09:53:01.442Z,95.00
2019-06-04T09:55:29.994Z,94.80
2019-06-04T09:58:26.985Z,94.50
2019-06-04T10:00:33.992Z,94.50
2019-06-04T10:03:04.187Z,95.10
2019-06-04T10:05:33.645Z,95.10
2019-06-04T10:08:11.146Z,94.90
2019-06-04T10:10:35.056Z,95.00
2019-06-04T10:13:05.431Z,94.80
2019-06-04T10:15:34.962Z,94.20
2019-06-04T10:18:05.070Z,94.20
2019-06-04T10:20:33.608Z,94.20
2019-06-04T10:23:02.310Z,94.60
2019-06-04T10:25:30.855Z,94.40
2019-06-04T10:27:59.399Z,94.20
2019-06-04T10:30:28.020Z,93.40
2019-06-04T10:33:00.217Z,93.70
2019-06-04T10:35:26.781Z,93.70
2019-06-04T10:37:55.322Z,94.10
2019-06-04T10:40:23.952Z,93.50
2019-06-04T10:42:54.116Z,93.80
2019-06-04T10:45:23.099Z,94.30
2019-06-04T10:47:53.356Z,94.50
2019-06-04T10:50:24.961Z,94.20
2019-06-04T10:52:54.929Z,94.20
2019-06-04T10:55:23.611Z,93.10
2019-06-04T10:57:52.159Z,93.40
2019-06-04T11:00:26.737Z,93.10
2019-06-04T11:02:56.177Z,91.30
2019-06-04T11:05:24.711Z,91.70
2019-06-04T11:07:54.457Z,91.10
2019-06-04T11:10:26.225Z,91.60
2019-06-04T11:12:57.673Z,93.30
2019-06-04T11:15:27.387Z,92.60
2019-06-04T11:17:57.444Z,92.00
2019-06-04T11:20:28.038Z,91.80
2019-06-04T11:22:56.674Z,92.20
2019-06-04T11:25:25.147Z,91.40
2019-06-04T11:27:54.990Z,91.60
2019-06-04T11:30:23.810Z,91.40
2019-06-04T11:32:53.504Z,90.90
2019-06-04T11:35:22.040Z,90.60
2019-06-04T11:37:50.634Z,90.00
2019-06-04T11:40:19.616Z,91.00
2019-06-04T11:42:48.164Z,90.10
2019-06-04T11:45:24.482Z,88.40
2019-06-04T11:47:47.619Z,89.60
2019-06-04T11:50:19.167Z,89.40
2019-06-04T11:52:47.893Z,87.80
2019-06-04T11:55:16.517Z,87.20
2019-06-04T11:57:45.236Z,87.80
2019-06-04T12:00:14.250Z,86.90
2019-06-04T12:02:42.802Z,88.10
2019-06-04T12:05:11.700Z,87.80
2019-06-04T12:07:40.271Z,87.40
2019-06-04T12:10:09.793Z,88.40
2019-06-04T12:12:44.116Z,87.20
2019-06-04T12:15:09.409Z,85.20
2019-06-04T12:17:37.893Z,86.50
2019-06-04T12:20:08.065Z,87.20
2019-06-04T12:23:23.417Z,85.00
2019-06-04T12:25:08.476Z,84.70
2019-06-04T12:27:36.954Z,84.70
2019-06-04T12:30:09.040Z,83.20
2019-06-04T12:32:37.500Z,82.10
2019-06-04T12:35:10.870Z,81.70
2019-06-04T12:37:36.723Z,83.00
2019-06-04T12:40:06.751Z,82.20
2019-06-04T12:42:35.429Z,83.60
2019-06-04T12:45:05.879Z,82.70
2019-06-04T12:47:34.491Z,82.80
2019-06-04T12:50:05.270Z,83.30
2019-06-04T12:52:35.282Z,81.60
2019-06-04T12:55:09.749Z,82.00
2019-06-04T12:57:39.820Z,82.90
2019-06-04T13:00:10.807Z,82.00
2019-06-04T13:02:42.906Z,82.50
2019-06-04T13:05:13.993Z,82.90
2019-06-04T13:07:41.894Z,79.10
2019-06-04T13:10:23.557Z,79.40
2019-06-04T13:12:42.143Z,80.80
2019-06-04T13:15:13.142Z,80.10
2019-06-04T13:17:42.114Z,79.10
2019-06-04T13:20:28.496Z,77.10
2019-06-04T13:22:41.317Z,76.50
2019-06-04T13:25:10.679Z,77.60
2019-06-04T13:27:39.325Z,79.00
2019-06-04T13:30:12.555Z,78.00
2019-06-04T13:32:41.118Z,79.80
2019-06-04T13:35:10.435Z,79.50
2019-06-04T13:37:40.882Z,80.30
2019-06-04T13:40:10.667Z,79.30
2019-06-04T13:42:46.142Z,79.30
2019-06-04T13:45:14.825Z,79.30
2019-06-04T13:47:43.274Z,77.10
2019-06-04T13:50:11.924Z,76.70
2019-06-04T13:52:40.397Z,75.70
2019-06-04T13:55:11.037Z,76.80
2019-06-04T13:57:39.560Z,76.30
2019-06-04T14:00:11.904Z,76.00
2019-06-04T14:02:40.662Z,76.90
2019-06-04T14:05:09.371Z,76.20
2019-06-04T14:07:37.907Z,74.60
2019-06-04T14:10:09.682Z,74.90
2019-06-04T14:12:38.471Z,75.70
2019-06-04T14:15:10.244Z,72.40
2019-06-04T14:17:38.711Z,74.60
2019-06-04T14:20:08.727Z,73.40
2019-06-04T14:22:37.857Z,71.80
2019-06-04T14:25:20.869Z,73.30
2019-06-04T14:27:49.352Z,74.20
2019-06-04T14:30:20.125Z,74.80
2019-06-04T14:32:48.678Z,73.30
2019-06-04T14:35:17.894Z,73.30
2019-06-04T14:37:46.424Z,73.00
2019-06-04T14:40:29.542Z,70.40
2019-06-04T14:42:46.561Z,70.20
2019-06-04T14:45:21.568Z,71.20
2019-06-04T14:47:47.383Z,71.40
2019-06-04T14:50:18.061Z,70.60
2019-06-04T14:52:46.662Z,71.20
2019-06-04T14:55:16.848Z,71.20
2019-06-04T14:57:45.555Z,70.30
2019-06-04T15:00:16.272Z,70.90
2019-06-04T15:02:45.140Z,71.60
2019-06-04T15:05:15.674Z,69.50
2019-06-04T15:08:00.787Z,70.30
2019-06-04T15:10:16.626Z,70.10
2019-06-04T15:12:45.760Z,68.30
2019-06-04T15:15:18.987Z,69.50
2019-06-04T15:17:45.536Z,70.00
2019-06-04T15:20:14.356Z,67.50
2019-06-04T15:22:42.837Z,66.90
2019-06-04T15:25:25.960Z,67.20
2019-06-04T15:27:56.445Z,66.20
2019-06-04T15:30:26.423Z,66.10
2019-06-04T15:32:55.843Z,66.40
2019-06-04T15:35:24.464Z,67.30
2019-06-04T15:37:53.246Z,68.00
2019-06-04T15:40:22.984Z,66.70
2019-06-04T15:42:51.755Z,67.60
2019-06-04T15:45:37.205Z,67.20
2019-06-04T15:48:08.075Z,67.50
2019-06-04T15:50:36.771Z,68.20
2019-06-04T15:53:06.579Z,66.90
2019-06-04T15:55:35.776Z,66.20
2019-06-04T15:58:05.510Z,66.80
2019-06-04T16:00:34.876Z,66.00
2019-06-04T16:03:04.898Z,66.00
2019-06-04T16:05:33.433Z,66.00
2019-06-04T16:08:01.955Z,64.80
2019-06-04T16:10:30.931Z,64.50
2019-06-04T16:12:59.555Z,65.00
2019-06-04T16:15:28.043Z,65.00
2019-06-04T16:17:56.583Z,64.50
2019-06-04T16:20:35.568Z,64.70
2019-06-04T16:23:01.756Z,65.70
2019-06-04T16:25:30.767Z,66.10
2019-06-04T16:28:13.382Z,65.00
2019-06-04T16:30:43.761Z,65.60
2019-06-04T16:33:12.544Z,65.10
2019-06-04T16:35:41.154Z,67.10
2019-06-04T16:38:10.394Z,65.70
2019-06-04T16:40:39.385Z,66.50
2019-06-04T16:43:09.052Z,67.20
2019-06-04T16:45:38.767Z,67.20
2019-06-04T16:48:08.183Z,67.30
2019-06-04T16:50:37.688Z,68.30
2019-06-04T16:53:07.813Z,67.60
2019-06-04T16:55:38.055Z,67.60
2019-06-04T16:58:12.416Z,67.90
2019-06-04T17:00:38.613Z,67.70
2019-06-04T17:03:08.467Z,68.50
2019-06-04T17:05:37.792Z,69.00
2019-06-04T17:08:06.474Z,68.90
2019-06-04T17:10:37.499Z,68.60
2019-06-04T17:13:09.126Z,68.70
2019-06-04T17:15:38.738Z,69.00
2019-06-04T17:18:08.043Z,68.50
2019-06-04T17:20:36.602Z,69.60
2019-06-04T17:23:05.979Z,69.60
2019-06-04T17:25:34.508Z,69.80
2019-06-04T17:28:03.447Z,70.20
2019-06-04T17:30:32.354Z,69.30
2019-06-04T17:33:04.709Z,69.40
2019-06-04T17:35:32.717Z,69.80
2019-06-04T17:38:01.500Z,69.70
2019-06-04T17:40:31.499Z,69.40
2019-06-04T17:43:06.057Z,69.50
2019-06-04T17:45:30.343Z,70.10
2019-06-04T17:47:59.157Z,70.30
2019-06-04T17:50:28.212Z,70.80
2019-06-04T17:52:57.346Z,71.20
2019-06-04T17:55:26.441Z,70.90
2019-06-04T17:57:55.241Z,71.20
2019-06-04T18:00:33.214Z,71.20
2019-06-04T18:03:02.066Z,71.60
2019-06-04T18:05:33.310Z,71.20
2019-06-04T18:08:01.091Z,71.10
2019-06-04T18:10:30.925Z,71.70
2019-06-04T18:12:59.654Z,71.80
2019-06-04T18:15:29.242Z,71.40
2019-06-04T18:17:57.834Z,70.10
2019-06-04T18:20:28.005Z,69.60
2019-06-04T18:22:56.759Z,69.50
2019-06-04T18:25:25.586Z,69.10
2019-06-04T18:27:54.055Z,69.10
2019-06-04T18:30:22.680Z,69.20
2019-06-04T18:32:51.159Z,69.30
2019-06-04T18:35:19.709Z,69.60
2019-06-04T18:37:48.167Z,69.20
2019-06-04T18:40:16.733Z,69.70
2019-06-04T18:42:45.203Z,69.50
2019-06-04T18:45:14.417Z,69.70
2019-06-04T18:47:45.088Z,70.00
2019-06-04T18:50:14.349Z,69.90
2019-06-04T18:52:42.958Z,70.00
2019-06-04T18:55:12.776Z,70.40
2019-06-04T18:57:41.338Z,70.40
2019-06-04T19:00:11.226Z,70.30
2019-06-04T19:02:40.672Z,69.90
2019-06-04T19:05:09.847Z,70.00
2019-06-04T19:07:39.289Z,70.20
2019-06-04T19:10:09.638Z,69.90
2019-06-04T19:12:39.471Z,69.80
2019-06-04T19:15:11.153Z,69.90
2019-06-04T19:17:41.312Z,69.70
2019-06-04T19:20:12.145Z,69.30
2019-06-04T19:22:41.472Z,69.40
2019-06-04T19:25:10.946Z,69.50
2019-06-04T19:27:39.599Z,69.30
2019-06-04T19:30:08.605Z,69.20
2019-06-04T19:32:42.404Z,69.50
2019-06-04T19:35:08.542Z,70.30
2019-06-04T19:37:37.474Z,69.80
2019-06-04T19:40:06.908Z,69.60
2019-06-04T19:42:37.128Z,69.30
2019-06-04T19:45:09.151Z,69.30
2019-06-04T19:47:38.520Z,68.90
2019-06-04T19:50:08.591Z,68.60
2019-06-04T19:52:38.411Z,68.70
2019-06-04T19:55:08.031Z,68.30
2019-06-04T19:57:37.248Z,68.50
2019-06-04T20:00:07.067Z,68.10
2019-06-04T20:02:35.681Z,68.20
2019-06-04T20:05:06.599Z,67.30
2019-06-04T20:07:36.368Z,67.60
2019-06-04T20:10:08.338Z,67.20
2019-06-04T20:12:37.234Z,66.60
2019-06-04T20:15:08.152Z,66.40
2019-06-04T20:17:37.587Z,66.20
2019-06-04T20:20:08.856Z,66.50
2019-06-04T20:22:37.979Z,66.60
2019-06-04T20:25:08.947Z,66.30
2019-06-04T20:27:38.618Z,66.30
2019-06-04T20:30:08.631Z,66.20
2019-06-04T20:32:41.231Z,66.40
2019-06-04T20:35:08.051Z,66.00
2019-06-04T20:37:36.595Z,66.30
2019-06-04T20:40:08.896Z,66.20
2019-06-04T20:42:37.496Z,66.30
2019-06-04T20:45:13.157Z,66.40
2019-06-04T20:47:37.451Z,64.40
2019-06-04T20:50:06.654Z,66.80
2019-06-04T20:52:35.268Z,66.80
2019-06-04T20:55:05.845Z,67.00
2019-06-04T20:57:34.414Z,67.10
2019-06-04T21:00:04.657Z,66.50
2019-06-04T21:02:33.292Z,67.40
2019-06-04T21:05:01.791Z,67.60
2019-06-04T21:07:30.313Z,67.60
2019-06-04T21:09:59.046Z,68.10
2019-06-04T21:12:27.522Z,68.00
2019-06-04T21:14:56.140Z,68.30
2019-06-04T21:17:24.731Z,68.20
2019-06-04T21:19:54.184Z,68.30
2019-06-04T21:22:22.853Z,68.30
2019-06-04T21:24:51.544Z,68.50
2019-06-04T21:27:20.259Z,68.50
2019-06-04T21:29:49.822Z,68.60
2019-06-04T21:32:18.524Z,68.70
2019-06-04T21:34:47.031Z,68.90
2019-06-04T21:37:15.548Z,69.20
2019-06-04T21:39:48.512Z,69.20
2019-06-04T21:42:14.186Z,69.40
2019-06-04T21:44:42.686Z,69.40
2019-06-04T21:47:11.302Z,69.50
2019-06-04T21:49:39.796Z,69.40
2019-06-04T21:52:08.290Z,69.40
2019-06-04T21:54:36.778Z,69.20
2019-06-04T21:57:05.391Z,69.30
2019-06-04T21:59:33.937Z,69.10
2019-06-04T22:02:02.417Z,69.20
2019-06-04T22:04:30.887Z,69.20
2019-06-04T22:07:00.951Z,68.70
2019-06-04T22:09:34.308Z,68.20
2019-06-04T22:12:02.850Z,69.20
2019-06-04T22:14:31.478Z,68.20
2019-06-04T22:17:00.815Z,68.00
2019-06-04T22:19:29.421Z,67.70
2019-06-04T22:21:58.968Z,67.80
2019-06-04T22:24:27.818Z,67.70
2019-06-04T22:26:56.440Z,67.50
2019-06-04T22:29:25.019Z,67.50
2019-06-04T22:31:54.907Z,67.40
2019-06-04T22:34:23.645Z,67.70
2019-06-04T22:36:53.650Z,67.70
2019-06-04T22:39:22.313Z,67.90
2019-06-04T22:41:51.632Z,68.00
2019-06-04T22:44:20.249Z,68.00
2019-06-04T22:46:49.434Z,68.00
2019-06-04T22:49:18.893Z,68.10
2019-06-04T22:51:47.346Z,68.10
2019-06-04T22:54:15.903Z,68.20
2019-06-04T22:56:44.461Z,68.10
2019-06-04T22:59:12.960Z,68.30
2019-06-04T23:01:41.406Z,68.20
2019-06-04T23:04:09.871Z,68.00
2019-06-04T23:06:38.368Z,67.90
2019-06-04T23:09:07.136Z,67.80
2019-06-04T23:11:35.914Z,68.10
2019-06-04T23:14:05.092Z,67.70
2019-06-04T23:16:37.507Z,67.60
2019-06-04T23:19:03.847Z,67.70
2019-06-04T23:21:32.369Z,67.80
2019-06-04T23:24:02.031Z,67.60
2019-06-04T23:26:30.709Z,67.70
2019-06-04T23:29:00.285Z,67.50
2019-06-04T23:31:28.958Z,67.60
2019-06-04T23:33:59.014Z,67.30
2019-06-04T23:36:27.753Z,67.50
2019-06-04T23:38:57.377Z,67.60
2019-06-04T23:41:25.994Z,67.40
2019-06-04T23:43:55.637Z,67.40
2019-06-04T23:46:24.409Z,67.20
2019-06-04T23:48:53.396Z,67.30
2019-06-04T23:51:21.855Z,66.80
2019-06-04T23:53:50.321Z,67.30
2019-06-04T23:56:18.796Z,67.30
2019-06-04T23:58:47.261Z,67.20
